createdAt,value
2018-09-28T00:01:12.045Z,8.71
2018-09-28T00:03:40.204Z,8.71
2018-09-28T00:06:08.167Z,8.65
2018-09-28T00:08:36.185Z,8.64
2018-09-28T00:11:04.168Z,8.63
2018-09-28T00:13:32.361Z,8.56
2018-09-28T00:16:00.631Z,8.60
2018-09-28T00:18:28.841Z,8.60
2018-09-28T00:20:57.001Z,8.44
2018-09-28T00:23:25.281Z,8.37
2018-09-28T00:25:53.579Z,8.39
2018-09-28T00:28:21.802Z,8.30
2018-09-28T00:30:50.042Z,8.28
2018-09-28T00:33:18.369Z,8.25
2018-09-28T00:35:46.376Z,8.28
2018-09-28T00:38:14.418Z,8.26
2018-09-28T00:40:42.398Z,8.17
2018-09-28T00:43:10.781Z,8.11
2018-09-28T00:45:38.763Z,8.06
2018-09-28T00:48:06.782Z,8.08
2018-09-28T00:50:34.745Z,8.14
2018-09-28T00:53:02.803Z,8.22
2018-09-28T00:55:30.758Z,8.19
2018-09-28T00:57:58.753Z,8.18
2018-09-28T01:00:26.726Z,8.13
2018-09-28T01:02:54.733Z,7.86
2018-09-28T01:05:22.715Z,7.79
2018-09-28T01:07:51.245Z,7.85
2018-09-28T01:10:19.493Z,7.90
2018-09-28T01:12:47.848Z,7.87
2018-09-28T01:15:15.803Z,7.85
2018-09-28T01:17:43.899Z,7.81
2018-09-28T01:20:11.926Z,8.13
2018-09-28T01:22:40.022Z,8.12
2018-09-28T01:25:08.318Z,8.17
2018-09-28T01:27:36.327Z,8.19
2018-09-28T01:30:04.508Z,8.09
2018-09-28T01:32:32.637Z,7.90
2018-09-28T01:35:00.865Z,7.89
2018-09-28T01:37:28.945Z,7.79
2018-09-28T01:39:57.068Z,7.84
2018-09-28T01:42:25.103Z,7.85
2018-09-28T01:44:53.164Z,7.74
2018-09-28T01:47:21.138Z,7.83
2018-09-28T01:49:49.132Z,7.78
2018-09-28T01:52:17.144Z,7.72
2018-09-28T01:54:45.188Z,7.80
2018-09-28T01:57:13.143Z,7.77
2018-09-28T01:59:41.168Z,7.75
2018-09-28T02:02:09.123Z,7.81
2018-09-28T02:04:37.103Z,7.89
2018-09-28T02:07:05.150Z,7.96
2018-09-28T02:09:33.185Z,8.18
2018-09-28T02:12:01.236Z,8.19
2018-09-28T02:14:29.594Z,8.29
2018-09-28T02:16:57.735Z,8.35
2018-09-28T02:19:25.871Z,8.36
2018-09-28T02:21:54.152Z,8.59
2018-09-28T02:24:22.334Z,8.81
2018-09-28T02:26:50.474Z,9.08
2018-09-28T02:29:18.674Z,9.38
2018-09-28T02:31:46.770Z,9.57
2018-09-28T02:34:14.764Z,9.83
2018-09-28T02:36:42.707Z,9.98
2018-09-28T02:39:10.782Z,10.12
2018-09-28T02:41:38.813Z,10.27
2018-09-28T02:44:07.167Z,10.37
2018-09-28T02:46:35.293Z,10.47
2018-09-28T02:49:06.474Z,10.55
2018-09-28T02:51:34.708Z,10.62
2018-09-28T02:54:02.832Z,10.73
2018-09-28T02:56:31.009Z,10.82
2018-09-28T02:58:59.180Z,11.15
2018-09-28T03:01:27.209Z,11.06
2018-09-28T03:03:55.358Z,11.06
2018-09-28T03:06:23.592Z,11.09
2018-09-28T03:08:51.678Z,11.12
2018-09-28T03:11:19.740Z,11.18
2018-09-28T03:13:47.805Z,11.42
2018-09-28T03:16:16.043Z,11.56
2018-09-28T03:18:44.251Z,11.50
2018-09-28T03:21:12.397Z,11.62
2018-09-28T03:23:40.519Z,11.76
2018-09-28T03:26:08.717Z,11.63
2018-09-28T03:28:36.936Z,11.61
2018-09-28T03:31:05.166Z,11.68
2018-09-28T03:33:33.316Z,12.08
2018-09-28T03:36:01.547Z,12.01
2018-09-28T03:38:29.735Z,12.04
2018-09-28T03:40:57.926Z,12.00
2018-09-28T03:43:26.109Z,12.02
2018-09-28T03:45:54.560Z,12.03
2018-09-28T03:48:22.674Z,12.06
2018-09-28T03:50:50.854Z,12.31
2018-09-28T03:53:18.967Z,12.33
2018-09-28T03:55:47.265Z,12.47
2018-09-28T03:58:15.526Z,12.49
2018-09-28T04:00:43.732Z,12.59
2018-09-28T04:03:11.951Z,12.54
2018-09-28T04:05:40.132Z,12.45
2018-09-28T04:08:08.791Z,12.43
2018-09-28T04:10:37.050Z,12.51
2018-09-28T04:13:05.287Z,12.65
2018-09-28T04:15:33.608Z,12.69
2018-09-28T04:18:01.867Z,12.70
2018-09-28T04:20:30.067Z,12.78
2018-09-28T04:22:58.220Z,12.76
2018-09-28T04:25:26.671Z,12.65
2018-09-28T04:27:54.793Z,12.88
2018-09-28T04:30:22.818Z,12.76
2018-09-28T04:32:50.833Z,12.63
2018-09-28T04:35:19.150Z,12.73
2018-09-28T04:37:47.357Z,12.73
2018-09-28T04:40:15.505Z,12.71
2018-09-28T04:42:43.668Z,12.59
2018-09-28T04:45:11.903Z,12.53
2018-09-28T04:47:40.033Z,12.46
2018-09-28T04:50:08.372Z,12.42
2018-09-28T04:52:36.492Z,12.53
2018-09-28T04:55:04.732Z,12.42
2018-09-28T04:57:33.012Z,12.49
2018-09-28T05:00:01.227Z,12.44
2018-09-28T05:02:29.727Z,12.41
2018-09-28T05:04:57.946Z,12.29
2018-09-28T05:07:26.150Z,12.33
2018-09-28T05:09:54.442Z,12.35
2018-09-28T05:12:22.760Z,12.28
2018-09-28T05:14:51.020Z,12.36
2018-09-28T05:17:19.283Z,12.39
2018-09-28T05:19:48.061Z,12.33
2018-09-28T05:22:16.325Z,12.33
2018-09-28T05:24:44.585Z,12.36
2018-09-28T05:27:13.158Z,12.34
2018-09-28T05:29:41.349Z,12.29
2018-09-28T05:32:09.746Z,12.29
2018-09-28T05:34:37.900Z,12.32
2018-09-28T05:37:06.302Z,12.32
2018-09-28T05:39:34.407Z,12.34
2018-09-28T05:42:02.559Z,12.35
2018-09-28T05:44:30.736Z,12.30
2018-09-28T05:46:58.955Z,12.29
2018-09-28T05:49:27.288Z,12.30
2018-09-28T05:52:00.871Z,12.35
2018-09-28T05:54:29.057Z,12.38
2018-09-28T05:56:57.216Z,12.31
2018-09-28T05:59:30.996Z,12.11
2018-09-28T06:02:04.757Z,12.11
2018-09-28T06:04:38.310Z,12.03
2018-09-28T06:07:06.596Z,12.00
2018-09-28T06:09:34.795Z,11.99
2018-09-28T06:12:02.995Z,11.93
2018-09-28T06:14:31.215Z,11.76
2018-09-28T06:16:59.503Z,11.77
2018-09-28T06:19:27.689Z,11.68
2018-09-28T06:21:56.182Z,11.68
2018-09-28T06:24:24.351Z,11.77
2018-09-28T06:26:52.761Z,11.84
2018-09-28T06:29:20.741Z,11.73
2018-09-28T06:31:48.930Z,11.85
2018-09-28T06:34:20.311Z,11.83
2018-09-28T06:36:48.365Z,11.75
2018-09-28T06:39:16.387Z,11.78
2018-09-28T06:41:44.747Z,11.72
2018-09-28T06:44:12.989Z,11.75
2018-09-28T06:46:41.049Z,11.77
2018-09-28T06:49:09.257Z,11.85
2018-09-28T06:51:37.618Z,11.93
2018-09-28T06:54:06.303Z,12.11
2018-09-28T06:56:34.829Z,12.01
2018-09-28T06:59:03.129Z,12.01
2018-09-28T07:01:31.429Z,12.04
2018-09-28T07:03:59.792Z,12.08
2018-09-28T07:06:28.170Z,12.09
2018-09-28T07:08:56.597Z,12.16
2018-09-28T07:11:25.070Z,12.10
2018-09-28T07:13:53.332Z,12.16
2018-09-28T07:16:21.559Z,12.20
2018-09-28T07:18:49.808Z,12.39
2018-09-28T07:21:17.959Z,12.47
2018-09-28T07:23:46.487Z,12.45
2018-09-28T07:26:14.648Z,12.51
2018-09-28T07:28:42.829Z,12.63
2018-09-28T07:31:11.077Z,12.66
2018-09-28T07:33:39.336Z,12.66
2018-09-28T07:36:07.807Z,12.70
2018-09-28T07:38:35.956Z,12.74
2018-09-28T07:41:04.140Z,12.79
2018-09-28T07:43:32.268Z,12.74
2018-09-28T07:46:00.428Z,12.63
2018-09-28T07:48:28.652Z,12.27
2018-09-28T07:50:56.977Z,12.02
2018-09-28T07:53:25.176Z,11.81
2018-09-28T07:55:53.409Z,11.63
2018-09-28T07:58:21.736Z,11.54
2018-09-28T08:00:49.936Z,11.49
2018-09-28T08:03:21.697Z,11.47
2018-09-28T08:05:49.969Z,11.47
2018-09-28T08:08:18.317Z,11.55
2018-09-28T08:10:46.706Z,11.59
2018-09-28T08:13:14.946Z,11.68
2018-09-28T08:15:43.297Z,11.76
2018-09-28T08:18:11.505Z,11.88
2018-09-28T08:20:39.685Z,11.98
2018-09-28T08:23:07.994Z,12.01
2018-09-28T08:25:36.214Z,12.15
2018-09-28T08:28:05.438Z,12.26
2018-09-28T08:30:33.783Z,12.39
2018-09-28T08:33:01.978Z,12.51
2018-09-28T08:35:30.233Z,12.69
2018-09-28T08:37:58.366Z,12.85
2018-09-28T08:40:26.606Z,12.97
2018-09-28T08:42:54.709Z,12.99
2018-09-28T08:45:22.865Z,13.11
2018-09-28T08:47:51.066Z,13.05
2018-09-28T08:50:19.286Z,13.05
2018-09-28T08:52:47.426Z,13.25
2018-09-28T08:55:15.578Z,13.34
2018-09-28T08:57:43.706Z,13.49
2018-09-28T09:00:12.058Z,13.67
2018-09-28T09:02:40.265Z,13.78
2018-09-28T09:05:08.785Z,13.42
2018-09-28T09:07:37.325Z,13.24
2018-09-28T09:10:06.001Z,13.19
2018-09-28T09:12:34.277Z,13.40
2018-09-28T09:15:02.506Z,13.71
2018-09-28T09:17:30.645Z,13.66
2018-09-28T09:19:58.865Z,13.59
2018-09-28T09:22:27.046Z,13.91
2018-09-28T09:24:55.325Z,14.00
2018-09-28T09:27:23.995Z,14.25
2018-09-28T09:29:52.188Z,14.47
2018-09-28T09:32:20.385Z,14.50
2018-09-28T09:34:48.645Z,14.35
2018-09-28T09:37:16.846Z,14.27
2018-09-28T09:39:45.065Z,14.29
2018-09-28T09:42:13.146Z,14.18
2018-09-28T09:44:41.797Z,14.09
2018-09-28T09:47:10.105Z,14.23
2018-09-28T09:49:38.526Z,14.27
2018-09-28T09:52:06.626Z,14.59
2018-09-28T09:54:35.025Z,14.71
2018-09-28T09:57:03.225Z,14.50
2018-09-28T09:59:31.525Z,14.73
2018-09-28T10:02:05.326Z,14.64
2018-09-28T10:04:33.566Z,14.62
2018-09-28T10:07:01.708Z,14.75
2018-09-28T10:09:29.951Z,14.50
2018-09-28T10:11:58.227Z,14.72
2018-09-28T10:14:26.546Z,14.57
2018-09-28T10:16:54.865Z,14.74
2018-09-28T10:19:23.099Z,14.90
2018-09-28T10:21:51.346Z,14.85
2018-09-28T10:24:19.526Z,14.62
2018-09-28T10:26:47.826Z,14.60
2018-09-28T10:29:16.058Z,14.58
2018-09-28T10:31:44.305Z,14.86
2018-09-28T10:34:12.426Z,15.10
2018-09-28T10:36:40.717Z,15.23
2018-09-28T10:39:09.203Z,15.25
2018-09-28T10:41:37.457Z,15.86
2018-09-28T10:44:06.126Z,15.51
2018-09-28T10:46:34.339Z,15.92
2018-09-28T10:49:02.587Z,15.89
2018-09-28T10:51:30.865Z,16.26
2018-09-28T10:53:58.946Z,15.99
2018-09-28T10:56:27.146Z,16.85
2018-09-28T10:58:55.301Z,17.01
2018-09-28T11:01:23.666Z,16.83
2018-09-28T11:03:51.766Z,16.95
2018-09-28T11:06:20.061Z,16.40
2018-09-28T11:08:48.255Z,16.75
2018-09-28T11:11:16.477Z,16.88
2018-09-28T11:13:44.905Z,16.50
2018-09-28T11:16:13.157Z,15.99
2018-09-28T11:18:41.338Z,16.73
2018-09-28T11:21:09.632Z,16.40
2018-09-28T11:23:37.877Z,16.27
2018-09-28T11:26:06.102Z,16.57
2018-09-28T11:28:34.245Z,16.83
2018-09-28T11:31:02.465Z,17.40
2018-09-28T14:34:32.430Z,15.93
2018-09-28T14:37:00.686Z,15.99
2018-09-28T20:22:49.971Z,8.36
2018-09-28T20:25:40.271Z,8.21
2018-09-28T20:28:26.327Z,8.17
2018-09-28T20:32:04.927Z,8.18
